sensor_id;sensor_type;location;lat;lon;timestamp;pressure;altitude;pressure_sealevel;temperature;humidity
7335;BME280;3708;42.632;23.378;2023-05-24T00:02:07;94111.56;;;18.06;48.70
7335;BME280;3708;42.632;23.378;2023-05-24T00:04:35;94117.88;;;17.91;49.18
7335;BME280;3708;42.632;23.378;2023-05-24T00:07:02;94121.03;;;18.07;49.03
7335;BME280;3708;42.632;23.378;2023-05-24T00:09:29;94113.50;;;18.12;48.81
7335;BME280;3708;42.632;23.378;2023-05-24T00:11:56;94125.19;;;18.08;49.14
7335;BME280;3708;42.632;23.378;2023-05-24T00:14:23;94120.34;;;18.17;48.74
7335;BME280;3708;42.632;23.378;2023-05-24T00:16:50;94125.66;;;18.20;48.75
7335;BME280;3708;42.632;23.378;2023-05-24T00:19:18;94117.31;;;18.15;49.02
7335;BME280;3708;42.632;23.378;2023-05-24T00:21:47;94113.09;;;18.10;48.97
7335;BME280;3708;42.632;23.378;2023-05-24T00:24:14;94113.94;;;18.21;48.68
7335;BME280;3708;42.632;23.378;2023-05-24T00:26:41;94116.66;;;18.32;48.50
7335;BME280;3708;42.632;23.378;2023-05-24T00:29:08;94114.72;;;18.29;47.79
7335;BME280;3708;42.632;23.378;2023-05-24T00:31:35;94117.38;;;18.29;47.78
7335;BME280;3708;42.632;23.378;2023-05-24T00:34:01;94121.50;;;18.23;47.81
7335;BME280;3708;42.632;23.378;2023-05-24T00:36:30;94117.31;;;18.18;47.96
7335;BME280;3708;42.632;23.378;2023-05-24T00:38:57;94129.19;;;17.84;48.92
7335;BME280;3708;42.632;23.378;2023-05-24T00:41:24;94118.72;;;18.02;48.96
7335;BME280;3708;42.632;23.378;2023-05-24T00:43:51;94117.31;;;18.15;48.73
7335;BME280;3708;42.632;23.378;2023-05-24T00:46:20;94110.53;;;18.21;48.52
7335;BME280;3708;42.632;23.378;2023-05-24T00:48:48;94106.38;;;18.20;48.52
7335;BME280;3708;42.632;23.378;2023-05-24T00:51:15;94104.41;;;18.13;48.95
7335;BME280;3708;42.632;23.378;2023-05-24T00:54:02;94112.72;;;18.12;49.15
7335;BME280;3708;42.632;23.378;2023-05-24T00:56:29;94117.56;;;18.03;49.05
7335;BME280;3708;42.632;23.378;2023-05-24T00:58:56;94113.03;;;18.00;49.06
7335;BME280;3708;42.632;23.378;2023-05-24T01:01:23;94106.19;;;17.99;49.23
7335;BME280;3708;42.632;23.378;2023-05-24T01:03:51;94117.53;;;17.96;49.28
7335;BME280;3708;42.632;23.378;2023-05-24T01:06:18;94112.94;;;17.89;49.40
7335;BME280;3708;42.632;23.378;2023-05-24T01:09:06;94112.94;;;17.89;49.51
7335;BME280;3708;42.632;23.378;2023-05-24T01:11:44;94122.41;;;17.90;49.55
7335;BME280;3708;42.632;23.378;2023-05-24T01:14:18;94123.88;;;17.84;49.67
7335;BME280;3708;42.632;23.378;2023-05-24T01:16:52;94118.88;;;17.76;49.90
7335;BME280;3708;42.632;23.378;2023-05-24T01:19:55;94119.81;;;17.53;49.83
7335;BME280;3708;42.632;23.378;2023-05-24T01:23:00;94115.69;;;17.19;50.45
7335;BME280;3708;42.632;23.378;2023-05-24T01:25:44;94127.72;;;17.13;50.76
7335;BME280;3708;42.632;23.378;2023-05-24T01:28:16;94134.56;;;17.18;50.84
7335;BME280;3708;42.632;23.378;2023-05-24T01:30:43;94141.84;;;17.28;50.76
7335;BME280;3708;42.632;23.378;2023-05-24T01:33:10;94138.31;;;17.17;50.91
7335;BME280;3708;42.632;23.378;2023-05-24T01:35:37;94138.00;;;17.22;50.89
7335;BME280;3708;42.632;23.378;2023-05-24T01:38:06;94143.41;;;17.32;50.83
7335;BME280;3708;42.632;23.378;2023-05-24T01:40:33;94139.56;;;17.26;50.64
7335;BME280;3708;42.632;23.378;2023-05-24T01:43:03;94140.56;;;17.11;51.13
7335;BME280;3708;42.632;23.378;2023-05-24T01:45:37;94141.91;;;16.98;51.40
7335;BME280;3708;42.632;23.378;2023-05-24T01:48:11;94132.13;;;17.02;51.15
7335;BME280;3708;42.632;23.378;2023-05-24T01:50:46;94133.31;;;17.08;50.77
7335;BME280;3708;42.632;23.378;2023-05-24T01:53:17;94129.63;;;16.83;51.54
7335;BME280;3708;42.632;23.378;2023-05-24T01:55:47;94131.38;;;16.72;52.02
7335;BME280;3708;42.632;23.378;2023-05-24T01:58:15;94125.38;;;16.75;52.06
7335;BME280;3708;42.632;23.378;2023-05-24T02:00:46;94128.84;;;16.79;51.73
7335;BME280;3708;42.632;23.378;2023-05-24T02:03:13;94129.59;;;16.80;51.98
7335;BME280;3708;42.632;23.378;2023-05-24T02:05:40;94122.41;;;16.80;52.15
7335;BME280;3708;42.632;23.378;2023-05-24T02:08:08;94123.97;;;16.85;51.96
7335;BME280;3708;42.632;23.378;2023-05-24T02:10:35;94122.13;;;16.89;51.80
7335;BME280;3708;42.632;23.378;2023-05-24T02:13:03;94121.13;;;16.97;51.82
7335;BME280;3708;42.632;23.378;2023-05-24T02:15:30;94123.09;;;17.07;51.57
7335;BME280;3708;42.632;23.378;2023-05-24T02:17:58;94122.34;;;17.06;51.36
7335;BME280;3708;42.632;23.378;2023-05-24T02:20:26;94125.25;;;16.98;51.32
7335;BME280;3708;42.632;23.378;2023-05-24T02:22:55;94125.91;;;16.88;51.33
7335;BME280;3708;42.632;23.378;2023-05-24T02:25:22;94119.75;;;16.80;51.53
7335;BME280;3708;42.632;23.378;2023-05-24T02:27:49;94117.78;;;16.73;51.87
7335;BME280;3708;42.632;23.378;2023-05-24T02:30:16;94116.72;;;16.78;51.89
7335;BME280;3708;42.632;23.378;2023-05-24T02:32:43;94121.03;;;16.60;52.08
7335;BME280;3708;42.632;23.378;2023-05-24T02:35:12;94116.25;;;16.43;52.59
7335;BME280;3708;42.632;23.378;2023-05-24T02:37:39;94115.53;;;16.46;52.67
7335;BME280;3708;42.632;23.378;2023-05-24T02:40:07;94116.34;;;16.50;52.66
7335;BME280;3708;42.632;23.378;2023-05-24T02:42:34;94122.88;;;16.56;52.53
7335;BME280;3708;42.632;23.378;2023-05-24T02:45:01;94111.56;;;16.59;52.42
7335;BME280;3708;42.632;23.378;2023-05-24T02:47:28;94111.97;;;16.61;52.19
7335;BME280;3708;42.632;23.378;2023-05-24T02:49:55;94107.41;;;16.58;52.01
7335;BME280;3708;42.632;23.378;2023-05-24T02:52:23;94111.13;;;16.53;51.74
7335;BME280;3708;42.632;23.378;2023-05-24T02:54:52;94105.72;;;16.46;51.85
7335;BME280;3708;42.632;23.378;2023-05-24T02:57:18;94116.97;;;16.40;51.53
7335;BME280;3708;42.632;23.378;2023-05-24T02:59:46;94113.16;;;16.37;51.10
7335;BME280;3708;42.632;23.378;2023-05-24T03:02:12;94110.66;;;16.22;51.54
7335;BME280;3708;42.632;23.378;2023-05-24T03:04:39;94108.13;;;16.02;52.01
7335;BME280;3708;42.632;23.378;2023-05-24T03:07:06;94109.94;;;15.98;52.22
7335;BME280;3708;42.632;23.378;2023-05-24T03:09:34;94113.41;;;16.02;52.07
7335;BME280;3708;42.632;23.378;2023-05-24T03:12:01;94120.94;;;16.00;52.11
7335;BME280;3708;42.632;23.378;2023-05-24T03:14:28;94116.53;;;16.08;51.65
7335;BME280;3708;42.632;23.378;2023-05-24T03:16:55;94120.38;;;16.14;51.67
7335;BME280;3708;42.632;23.378;2023-05-24T03:19:21;94128.16;;;16.30;51.51
7335;BME280;3708;42.632;23.378;2023-05-24T03:21:48;94122.28;;;16.43;51.17
7335;BME280;3708;42.632;23.378;2023-05-24T03:24:15;94129.66;;;16.53;50.95
7335;BME280;3708;42.632;23.378;2023-05-24T03:26:43;94124.50;;;16.38;51.24
7335;BME280;3708;42.632;23.378;2023-05-24T03:29:10;94132.31;;;16.57;51.01
7335;BME280;3708;42.632;23.378;2023-05-24T03:31:37;94138.47;;;16.64;50.93
7335;BME280;3708;42.632;23.378;2023-05-24T03:34:04;94140.22;;;16.53;50.35
7335;BME280;3708;42.632;23.378;2023-05-24T03:36:30;94137.31;;;16.62;50.17
7335;BME280;3708;42.632;23.378;2023-05-24T03:38:58;94145.41;;;16.76;50.12
7335;BME280;3708;42.632;23.378;2023-05-24T03:41:25;94146.94;;;16.77;49.86
7335;BME280;3708;42.632;23.378;2023-05-24T03:43:53;94146.22;;;16.80;49.90
7335;BME280;3708;42.632;23.378;2023-05-24T03:46:20;94146.00;;;16.92;49.63
7335;BME280;3708;42.632;23.378;2023-05-24T03:48:47;94146.09;;;16.99;49.79
7335;BME280;3708;42.632;23.378;2023-05-24T03:51:14;94144.31;;;17.10;49.84
7335;BME280;3708;42.632;23.378;2023-05-24T03:53:40;94141.72;;;17.14;49.67
7335;BME280;3708;42.632;23.378;2023-05-24T03:56:07;94135.69;;;17.17;49.90
7335;BME280;3708;42.632;23.378;2023-05-24T03:58:34;94144.47;;;17.24;49.59
7335;BME280;3708;42.632;23.378;2023-05-24T04:01:03;94146.72;;;17.22;49.80
7335;BME280;3708;42.632;23.378;2023-05-24T04:03:30;94144.59;;;17.35;49.37
7335;BME280;3708;42.632;23.378;2023-05-24T04:05:58;94145.47;;;17.46;49.34
7335;BME280;3708;42.632;23.378;2023-05-24T04:08:25;94156.16;;;17.53;48.72
7335;BME280;3708;42.632;23.378;2023-05-24T04:10:51;94153.25;;;17.69;48.55
7335;BME280;3708;42.632;23.378;2023-05-24T04:13:18;94154.88;;;17.77;48.27
7335;BME280;3708;42.632;23.378;2023-05-24T04:15:45;94151.94;;;17.89;48.08
7335;BME280;3708;42.632;23.378;2023-05-24T04:18:13;94150.06;;;17.93;47.84
7335;BME280;3708;42.632;23.378;2023-05-24T04:20:40;94155.88;;;18.09;47.75
7335;BME280;3708;42.632;23.378;2023-05-24T04:23:07;94160.28;;;17.91;47.80
7335;BME280;3708;42.632;23.378;2023-05-24T04:25:33;94155.75;;;17.95;47.97
7335;BME280;3708;42.632;23.378;2023-05-24T04:28:00;94155.13;;;18.08;47.83
7335;BME280;3708;42.632;23.378;2023-05-24T04:30:28;94160.94;;;17.81;48.22
7335;BME280;3708;42.632;23.378;2023-05-24T04:32:55;94154.44;;;18.18;47.93
7335;BME280;3708;42.632;23.378;2023-05-24T04:35:23;94150.03;;;18.40;47.43
7335;BME280;3708;42.632;23.378;2023-05-24T04:37:51;94155.47;;;18.58;47.05
7335;BME280;3708;42.632;23.378;2023-05-24T04:40:18;94157.84;;;18.77;46.57
7335;BME280;3708;42.632;23.378;2023-05-24T04:42:47;94158.66;;;18.88;45.96
7335;BME280;3708;42.632;23.378;2023-05-24T04:45:14;94164.03;;;19.02;46.08
7335;BME280;3708;42.632;23.378;2023-05-24T04:47:41;94170.94;;;19.21;45.50
7335;BME280;3708;42.632;23.378;2023-05-24T04:50:08;94175.59;;;19.34;45.28
7335;BME280;3708;42.632;23.378;2023-05-24T04:52:36;94177.13;;;19.53;45.33
7335;BME280;3708;42.632;23.378;2023-05-24T04:55:04;94181.34;;;19.64;44.90
7335;BME280;3708;42.632;23.378;2023-05-24T04:57:31;94184.78;;;19.79;44.84
7335;BME280;3708;42.632;23.378;2023-05-24T04:59:58;94175.69;;;19.87;44.74
7335;BME280;3708;42.632;23.378;2023-05-24T05:02:25;94170.75;;;20.00;44.72
7335;BME280;3708;42.632;23.378;2023-05-24T05:04:52;94179.88;;;20.16;44.49
7335;BME280;3708;42.632;23.378;2023-05-24T05:07:18;94176.84;;;20.07;44.41
7335;BME280;3708;42.632;23.378;2023-05-24T05:09:47;94184.41;;;19.84;45.26
7335;BME280;3708;42.632;23.378;2023-05-24T05:12:14;94192.38;;;19.84;45.18
7335;BME280;3708;42.632;23.378;2023-05-24T05:14:41;94189.00;;;19.94;44.98
7335;BME280;3708;42.632;23.378;2023-05-24T05:17:08;94188.59;;;19.92;44.80
7335;BME280;3708;42.632;23.378;2023-05-24T05:19:35;94183.28;;;19.85;45.53
7335;BME280;3708;42.632;23.378;2023-05-24T05:22:01;94185.94;;;19.92;45.57
7335;BME280;3708;42.632;23.378;2023-05-24T05:24:28;94182.13;;;19.93;46.26
7335;BME280;3708;42.632;23.378;2023-05-24T05:26:57;94184.78;;;19.83;47.31
7335;BME280;3708;42.632;23.378;2023-05-24T05:29:24;94181.78;;;19.98;47.12
7335;BME280;3708;42.632;23.378;2023-05-24T05:31:50;94183.28;;;20.13;46.88
7335;BME280;3708;42.632;23.378;2023-05-24T05:34:17;94183.31;;;20.27;46.48
7335;BME280;3708;42.632;23.378;2023-05-24T05:36:45;94186.34;;;20.47;46.06
7335;BME280;3708;42.632;23.378;2023-05-24T05:39:12;94189.00;;;20.58;46.25
7335;BME280;3708;42.632;23.378;2023-05-24T05:41:39;94194.31;;;20.72;46.00
7335;BME280;3708;42.632;23.378;2023-05-24T05:44:10;94195.41;;;20.85;45.65
7335;BME280;3708;42.632;23.378;2023-05-24T05:46:37;94193.88;;;20.94;44.32
7335;BME280;3708;42.632;23.378;2023-05-24T05:49:05;94195.41;;;20.95;43.65
7335;BME280;3708;42.632;23.378;2023-05-24T05:51:32;94195.38;;;21.06;42.77
7335;BME280;3708;42.632;23.378;2023-05-24T05:53:59;94190.03;;;21.09;42.47
7335;BME280;3708;42.632;23.378;2023-05-24T05:56:26;94191.88;;;21.26;41.86
7335;BME280;3708;42.632;23.378;2023-05-24T05:58:53;94193.00;;;21.36;41.61
7335;BME280;3708;42.632;23.378;2023-05-24T06:01:23;94186.91;;;21.39;41.73
7335;BME280;3708;42.632;23.378;2023-05-24T06:03:50;94193.00;;;21.29;42.09
7335;BME280;3708;42.632;23.378;2023-05-24T06:06:17;94196.97;;;20.08;44.39
7335;BME280;3708;42.632;23.378;2023-05-24T06:08:44;94203.06;;;20.51;44.03
7335;BME280;3708;42.632;23.378;2023-05-24T06:11:11;94203.38;;;21.02;43.27
7335;BME280;3708;42.632;23.378;2023-05-24T06:13:37;94205.94;;;21.41;42.58
7335;BME280;3708;42.632;23.378;2023-05-24T06:16:05;94205.72;;;21.76;42.04
7335;BME280;3708;42.632;23.378;2023-05-24T06:18:34;94212.69;;;21.60;42.28
7335;BME280;3708;42.632;23.378;2023-05-24T06:21:01;94206.47;;;21.80;41.55
7335;BME280;3708;42.632;23.378;2023-05-24T06:23:28;94207.19;;;21.95;41.50
7335;BME280;3708;42.632;23.378;2023-05-24T06:25:55;94203.84;;;21.73;42.07
7335;BME280;3708;42.632;23.378;2023-05-24T06:28:22;94210.16;;;22.04;41.81
7335;BME280;3708;42.632;23.378;2023-05-24T06:30:49;94209.66;;;22.20;41.20
7335;BME280;3708;42.632;23.378;2023-05-24T06:33:16;94207.63;;;21.79;41.88
7335;BME280;3708;42.632;23.378;2023-05-24T06:35:44;94207.00;;;21.54;42.36
7335;BME280;3708;42.632;23.378;2023-05-24T06:38:14;94208.25;;;21.25;42.84
7335;BME280;3708;42.632;23.378;2023-05-24T06:40:42;94208.00;;;21.88;41.76
7335;BME280;3708;42.632;23.378;2023-05-24T06:43:09;94208.69;;;22.51;47.15
7335;BME280;3708;42.632;23.378;2023-05-24T06:45:35;94205.13;;;23.05;42.71
7335;BME280;3708;42.632;23.378;2023-05-24T06:48:05;94197.78;;;23.50;44.11
7335;BME280;3708;42.632;23.378;2023-05-24T06:50:32;94190.47;;;24.11;44.19
7335;BME280;3708;42.632;23.378;2023-05-24T06:53:04;94199.41;;;24.24;38.79
7335;BME280;3708;42.632;23.378;2023-05-24T06:55:31;94200.84;;;24.32;38.18
7335;BME280;3708;42.632;23.378;2023-05-24T06:57:58;94203.63;;;24.48;39.74
7335;BME280;3708;42.632;23.378;2023-05-24T07:00:25;94193.16;;;24.80;40.69
7335;BME280;3708;42.632;23.378;2023-05-24T07:02:52;94183.56;;;24.83;37.20
7335;BME280;3708;42.632;23.378;2023-05-24T07:05:19;94203.88;;;24.34;37.17
7335;BME280;3708;42.632;23.378;2023-05-24T07:07:46;94192.22;;;22.56;39.18
7335;BME280;3708;42.632;23.378;2023-05-24T07:10:14;94199.25;;;21.74;40.92
7335;BME280;3708;42.632;23.378;2023-05-24T07:12:41;94195.66;;;22.56;40.75
7335;BME280;3708;42.632;23.378;2023-05-24T07:15:08;94195.09;;;22.79;40.40
7335;BME280;3708;42.632;23.378;2023-05-24T07:17:35;94184.78;;;23.15;39.07
7335;BME280;3708;42.632;23.378;2023-05-24T07:20:02;94192.28;;;23.61;38.99
7335;BME280;3708;42.632;23.378;2023-05-24T07:22:34;94202.06;;;23.03;38.81
7335;BME280;3708;42.632;23.378;2023-05-24T07:25:01;94201.22;;;23.13;38.71
7335;BME280;3708;42.632;23.378;2023-05-24T07:27:30;94204.22;;;23.83;37.83
7335;BME280;3708;42.632;23.378;2023-05-24T07:29:57;94202.97;;;24.17;37.26
7335;BME280;3708;42.632;23.378;2023-05-24T07:32:24;94200.50;;;24.53;36.67
7335;BME280;3708;42.632;23.378;2023-05-24T07:34:51;94207.94;;;24.42;36.89
7335;BME280;3708;42.632;23.378;2023-05-24T07:37:18;94201.78;;;24.45;36.91
7335;BME280;3708;42.632;23.378;2023-05-24T07:39:48;94203.19;;;24.53;37.00
7335;BME280;3708;42.632;23.378;2023-05-24T07:42:15;94199.38;;;23.74;38.46
7335;BME280;3708;42.632;23.378;2023-05-24T07:44:43;94205.69;;;23.57;38.92
7335;BME280;3708;42.632;23.378;2023-05-24T07:47:10;94206.97;;;23.76;38.67
7335;BME280;3708;42.632;23.378;2023-05-24T07:49:37;94204.78;;;24.24;37.51
7335;BME280;3708;42.632;23.378;2023-05-24T07:52:04;94198.09;;;24.12;37.14
7335;BME280;3708;42.632;23.378;2023-05-24T07:54:30;94199.75;;;24.76;36.37
7335;BME280;3708;42.632;23.378;2023-05-24T07:56:57;94188.22;;;24.56;37.14
7335;BME280;3708;42.632;23.378;2023-05-24T07:59:24;94205.66;;;25.10;36.15
7335;BME280;3708;42.632;23.378;2023-05-24T08:01:52;94194.66;;;25.24;35.82
7335;BME280;3708;42.632;23.378;2023-05-24T08:04:20;94200.28;;;25.30;35.59
7335;BME280;3708;42.632;23.378;2023-05-24T08:06:46;94191.91;;;25.28;35.27
7335;BME280;3708;42.632;23.378;2023-05-24T08:09:13;94200.72;;;25.67;35.66
7335;BME280;3708;42.632;23.378;2023-05-24T08:11:41;94197.81;;;25.19;35.18
7335;BME280;3708;42.632;23.378;2023-05-24T08:14:07;94199.94;;;25.28;34.99
7335;BME280;3708;42.632;23.378;2023-05-24T08:16:34;94196.50;;;25.08;34.78
7335;BME280;3708;42.632;23.378;2023-05-24T08:19:02;94203.44;;;25.05;34.42
7335;BME280;3708;42.632;23.378;2023-05-24T08:21:29;94197.75;;;25.23;33.92
7335;BME280;3708;42.632;23.378;2023-05-24T08:23:56;94194.31;;;25.03;33.73
7335;BME280;3708;42.632;23.378;2023-05-24T08:26:24;94198.63;;;24.50;35.10
7335;BME280;3708;42.632;23.378;2023-05-24T08:28:51;94191.94;;;24.62;34.64
7335;BME280;3708;42.632;23.378;2023-05-24T08:31:18;94190.09;;;25.44;34.42
7335;BME280;3708;42.632;23.378;2023-05-24T08:33:44;94193.78;;;25.86;34.04
7335;BME280;3708;42.632;23.378;2023-05-24T08:36:16;94188.41;;;25.86;32.79
7335;BME280;3708;42.632;23.378;2023-05-24T08:38:43;94192.28;;;26.21;32.07
7335;BME280;3708;42.632;23.378;2023-05-24T08:41:10;94195.66;;;26.73;31.43
7335;BME280;3708;42.632;23.378;2023-05-24T08:43:37;94199.00;;;26.77;29.97
7335;BME280;3708;42.632;23.378;2023-05-24T08:46:05;94195.75;;;27.27;28.42
7335;BME280;3708;42.632;23.378;2023-05-24T08:48:33;94188.16;;;27.79;28.79
7335;BME280;3708;42.632;23.378;2023-05-24T08:51:03;94192.84;;;28.29;28.58
7335;BME280;3708;42.632;23.378;2023-05-24T08:53:33;94197.31;;;27.94;29.75
7335;BME280;3708;42.632;23.378;2023-05-24T08:56:02;94203.47;;;27.41;28.93
7335;BME280;3708;42.632;23.378;2023-05-24T08:58:30;94188.56;;;27.65;27.61
7335;BME280;3708;42.632;23.378;2023-05-24T09:00:57;94188.81;;;27.83;25.85
7335;BME280;3708;42.632;23.378;2023-05-24T09:03:26;94193.13;;;27.93;26.12
7335;BME280;3708;42.632;23.378;2023-05-24T09:05:57;94190.09;;;27.79;26.25
7335;BME280;3708;42.632;23.378;2023-05-24T09:08:25;94198.59;;;27.77;26.93
7335;BME280;3708;42.632;23.378;2023-05-24T09:10:54;94197.47;;;28.16;27.35
7335;BME280;3708;42.632;23.378;2023-05-24T09:13:22;94193.22;;;28.53;27.19
7335;BME280;3708;42.632;23.378;2023-05-24T09:15:49;94197.97;;;28.61;27.09
7335;BME280;3708;42.632;23.378;2023-05-24T09:18:16;94196.56;;;29.04;26.19
7335;BME280;3708;42.632;23.378;2023-05-24T09:20:43;94192.75;;;29.14;26.75
7335;BME280;3708;42.632;23.378;2023-05-24T09:23:10;94189.47;;;28.63;27.01
7335;BME280;3708;42.632;23.378;2023-05-24T09:25:42;94189.94;;;28.83;25.86
7335;BME280;3708;42.632;23.378;2023-05-24T09:28:12;94192.72;;;28.33;25.86
7335;BME280;3708;42.632;23.378;2023-05-24T09:30:42;94193.41;;;28.71;25.69
7335;BME280;3708;42.632;23.378;2023-05-24T09:33:09;94190.56;;;28.28;25.77
7335;BME280;3708;42.632;23.378;2023-05-24T09:35:36;94185.91;;;28.41;27.30
7335;BME280;3708;42.632;23.378;2023-05-24T09:38:15;94189.25;;;28.57;26.21
7335;BME280;3708;42.632;23.378;2023-05-24T09:40:43;94187.00;;;28.90;25.29
7335;BME280;3708;42.632;23.378;2023-05-24T09:43:12;94181.47;;;29.06;25.14
7335;BME280;3708;42.632;23.378;2023-05-24T09:45:43;94185.06;;;28.91;24.91
7335;BME280;3708;42.632;23.378;2023-05-24T09:48:11;94176.94;;;29.03;25.46
7335;BME280;3708;42.632;23.378;2023-05-24T09:50:38;94168.03;;;29.15;24.54
7335;BME280;3708;42.632;23.378;2023-05-24T09:53:05;94173.56;;;29.55;22.83
7335;BME280;3708;42.632;23.378;2023-05-24T09:55:35;94177.03;;;29.56;23.21
7335;BME280;3708;42.632;23.378;2023-05-24T09:58:03;94173.81;;;30.00;23.72
7335;BME280;3708;42.632;23.378;2023-05-24T10:00:34;94176.19;;;29.68;23.74
7335;BME280;3708;42.632;23.378;2023-05-24T10:03:05;94179.19;;;29.05;24.38
7335;BME280;3708;42.632;23.378;2023-05-24T10:05:32;94177.50;;;28.98;25.11
7335;BME280;3708;42.632;23.378;2023-05-24T10:08:00;94172.31;;;28.70;25.39
7335;BME280;3708;42.632;23.378;2023-05-24T10:10:30;94168.03;;;29.15;24.46
7335;BME280;3708;42.632;23.378;2023-05-24T10:12:58;94170.19;;;29.20;24.52
7335;BME280;3708;42.632;23.378;2023-05-24T10:15:25;94166.41;;;29.39;24.40
7335;BME280;3708;42.632;23.378;2023-05-24T10:17:55;94161.72;;;29.31;24.20
7335;BME280;3708;42.632;23.378;2023-05-24T10:20:22;94161.56;;;29.13;23.67
7335;BME280;3708;42.632;23.378;2023-05-24T10:22:51;94160.72;;;28.82;24.20
7335;BME280;3708;42.632;23.378;2023-05-24T10:25:21;94166.16;;;29.47;23.15
7335;BME280;3708;42.632;23.378;2023-05-24T10:27:51;94172.06;;;29.76;23.39
7335;BME280;3708;42.632;23.378;2023-05-24T10:30:25;94160.69;;;29.81;24.45
7335;BME280;3708;42.632;23.378;2023-05-24T10:32:58;94154.03;;;30.03;23.31
7335;BME280;3708;42.632;23.378;2023-05-24T10:35:26;94159.75;;;30.54;21.56
7335;BME280;3708;42.632;23.378;2023-05-24T10:37:54;94157.81;;;30.55;22.10
7335;BME280;3708;42.632;23.378;2023-05-24T10:40:22;94159.22;;;30.96;21.19
7335;BME280;3708;42.632;23.378;2023-05-24T10:42:51;94156.34;;;30.99;21.27
7335;BME280;3708;42.632;23.378;2023-05-24T10:45:32;94150.31;;;31.49;20.24
7335;BME280;3708;42.632;23.378;2023-05-24T10:51:30;94148.09;;;31.12;20.94
7335;BME280;3708;42.632;23.378;2023-05-24T10:54:10;94150.06;;;31.02;21.90
7335;BME280;3708;42.632;23.378;2023-05-24T10:56:42;94141.00;;;31.23;20.17
7335;BME280;3708;42.632;23.378;2023-05-24T10:59:22;94143.47;;;31.81;20.18
7335;BME280;3708;42.632;23.378;2023-05-24T11:01:54;94133.75;;;32.07;19.70
7335;BME280;3708;42.632;23.378;2023-05-24T11:04:22;94144.16;;;30.76;20.38
7335;BME280;3708;42.632;23.378;2023-05-24T11:06:54;94133.00;;;29.98;21.01
7335;BME280;3708;42.632;23.378;2023-05-24T11:09:23;94142.66;;;30.75;22.69
7335;BME280;3708;42.632;23.378;2023-05-24T11:11:54;94136.38;;;30.21;23.00
7335;BME280;3708;42.632;23.378;2023-05-24T11:14:24;94135.16;;;30.79;22.41
7335;BME280;3708;42.632;23.378;2023-05-24T11:16:53;94132.34;;;30.92;22.25
7335;BME280;3708;42.632;23.378;2023-05-24T11:19:23;94130.19;;;31.41;21.65
7335;BME280;3708;42.632;23.378;2023-05-24T11:21:52;94123.09;;;31.53;21.29
7335;BME280;3708;42.632;23.378;2023-05-24T11:24:23;94121.94;;;31.18;21.84
7335;BME280;3708;42.632;23.378;2023-05-24T11:26:50;94120.56;;;31.49;21.34
7335;BME280;3708;42.632;23.378;2023-05-24T11:29:17;94121.53;;;32.12;21.93
7335;BME280;3708;42.632;23.378;2023-05-24T11:31:47;94113.81;;;32.52;21.13
7335;BME280;3708;42.632;23.378;2023-05-24T11:34:15;94119.91;;;32.85;21.05
7335;BME280;3708;42.632;23.378;2023-05-24T11:36:42;94118.91;;;32.26;21.70
7335;BME280;3708;42.632;23.378;2023-05-24T11:39:11;94118.59;;;32.24;21.36
7335;BME280;3708;42.632;23.378;2023-05-24T11:41:38;94127.66;;;32.78;21.84
7335;BME280;3708;42.632;23.378;2023-05-24T11:44:07;94124.31;;;32.26;19.80
7335;BME280;3708;42.632;23.378;2023-05-24T11:46:34;94117.91;;;32.48;21.14
7335;BME280;3708;42.632;23.378;2023-05-24T11:49:01;94109.78;;;32.71;19.79
7335;BME280;3708;42.632;23.378;2023-05-24T11:51:29;94110.47;;;32.57;19.83
7335;BME280;3708;42.632;23.378;2023-05-24T11:53:56;94107.81;;;33.10;19.60
7335;BME280;3708;42.632;23.378;2023-05-24T11:56:25;94095.84;;;33.46;19.93
7335;BME280;3708;42.632;23.378;2023-05-24T11:59:01;94086.03;;;34.12;20.07
7335;BME280;3708;42.632;23.378;2023-05-24T12:01:30;94086.34;;;34.34;19.76
7335;BME280;3708;42.632;23.378;2023-05-24T12:03:57;94088.44;;;34.45;18.69
7335;BME280;3708;42.632;23.378;2023-05-24T12:06:33;94090.19;;;34.83;19.01
7335;BME280;3708;42.632;23.378;2023-05-24T12:09:00;94099.28;;;35.00;19.54
7335;BME280;3708;42.632;23.378;2023-05-24T12:11:31;94084.28;;;35.10;19.50
7335;BME280;3708;42.632;23.378;2023-05-24T12:13:58;94088.47;;;35.57;18.54
7335;BME280;3708;42.632;23.378;2023-05-24T12:16:26;94089.75;;;34.49;18.63
7335;BME280;3708;42.632;23.378;2023-05-24T12:18:56;94091.72;;;32.83;20.20
7335;BME280;3708;42.632;23.378;2023-05-24T12:21:23;94086.84;;;31.92;20.84
7335;BME280;3708;42.632;23.378;2023-05-24T12:23:51;94077.16;;;32.95;20.14
7335;BME280;3708;42.632;23.378;2023-05-24T12:26:17;94067.66;;;33.58;19.23
7335;BME280;3708;42.632;23.378;2023-05-24T12:28:52;94069.28;;;34.14;19.00
7335;BME280;3708;42.632;23.378;2023-05-24T12:31:19;94071.59;;;34.81;19.11
7335;BME280;3708;42.632;23.378;2023-05-24T12:33:46;94067.94;;;35.36;18.80
7335;BME280;3708;42.632;23.378;2023-05-24T12:36:13;94072.97;;;35.43;18.11
7335;BME280;3708;42.632;23.378;2023-05-24T12:38:40;94068.94;;;34.87;17.87
7335;BME280;3708;42.632;23.378;2023-05-24T12:41:09;94068.53;;;35.45;18.77
7335;BME280;3708;42.632;23.378;2023-05-24T12:43:38;94062.81;;;35.69;17.98
7335;BME280;3708;42.632;23.378;2023-05-24T12:46:06;94065.97;;;35.36;18.41
7335;BME280;3708;42.632;23.378;2023-05-24T12:48:33;94064.84;;;35.22;18.00
7335;BME280;3708;42.632;23.378;2023-05-24T12:50:59;94067.94;;;35.36;17.63
7335;BME280;3708;42.632;23.378;2023-05-24T12:53:28;94065.00;;;35.65;17.03
7335;BME280;3708;42.632;23.378;2023-05-24T12:55:55;94069.22;;;35.97;18.31
7335;BME280;3708;42.632;23.378;2023-05-24T12:58:22;94058.16;;;36.17;17.18
7335;BME280;3708;42.632;23.378;2023-05-24T13:00:48;94061.84;;;35.46;18.25
7335;BME280;3708;42.632;23.378;2023-05-24T13:03:17;94064.34;;;35.75;18.10
7335;BME280;3708;42.632;23.378;2023-05-24T13:05:44;94058.69;;;36.21;17.81
7335;BME280;3708;42.632;23.378;2023-05-24T13:08:11;94053.41;;;36.49;17.56
7335;BME280;3708;42.632;23.378;2023-05-24T13:10:39;94050.22;;;36.61;16.04
7335;BME280;3708;42.632;23.378;2023-05-24T13:13:06;94051.31;;;36.33;16.76
7335;BME280;3708;42.632;23.378;2023-05-24T13:15:33;94055.34;;;35.64;18.07
7335;BME280;3708;42.632;23.378;2023-05-24T13:18:00;94050.13;;;35.60;17.05
7335;BME280;3708;42.632;23.378;2023-05-24T13:20:28;94044.03;;;35.76;17.15